sensor_id;sensor_type;location;lat;lon;timestamp;P1;durP1;ratioP1;P2;durP2;ratioP2
62863;SDS011;48954;59.950;11.014;2022-09-01T00:02:21;2.80;;;1.50;;
62863;SDS011;48954;59.950;11.014;2022-09-01T00:04:49;3.60;;;1.80;;
62863;SDS011;48954;59.950;11.014;2022-09-01T00:07:20;4.50;;;1.70;;
62863;SDS011;48954;59.950;11.014;2022-09-01T00:09:59;3.20;;;1.50;;
62863;SDS011;48954;59.950;11.014;2022-09-01T00:12:28;3.30;;;1.50;;
62863;SDS011;48954;59.950;11.014;2022-09-01T00:15:08;3.50;;;1.80;;
62863;SDS011;48954;59.950;11.014;2022-09-01T00:17:47;3.00;;;1.50;;
62863;SDS011;48954;59.950;11.014;2022-09-01T00:20:13;2.90;;;1.60;;
62863;SDS011;48954;59.950;11.014;2022-09-01T00:22:50;3.90;;;1.70;;
62863;SDS011;48954;59.950;11.014;2022-09-01T00:25:22;3.50;;;1.60;;
62863;SDS011;48954;59.950;11.014;2022-09-01T00:28:03;3.10;;;1.50;;
62863;SDS011;48954;59.950;11.014;2022-09-01T00:30:34;3.40;;;1.70;;
62863;SDS011;48954;59.950;11.014;2022-09-01T00:33:02;5.10;;;1.80;;
62863;SDS011;48954;59.950;11.014;2022-09-01T00:35:31;4.60;;;1.60;;
62863;SDS011;48954;59.950;11.014;2022-09-01T00:37:57;3.40;;;1.30;;
62863;SDS011;48954;59.950;11.014;2022-09-01T00:40:24;3.30;;;1.60;;
62863;SDS011;48954;59.950;11.014;2022-09-01T00:42:53;2.40;;;1.50;;
62863;SDS011;48954;59.950;11.014;2022-09-01T00:45:28;3.30;;;1.80;;
62863;SDS011;48954;59.950;11.014;2022-09-01T00:47:55;3.70;;;1.40;;
62863;SDS011;48954;59.950;11.014;2022-09-01T00:50:21;2.90;;;1.50;;
62863;SDS011;48954;59.950;11.014;2022-09-01T00:52:49;4.00;;;1.70;;
62863;SDS011;48954;59.950;11.014;2022-09-01T00:55:21;3.30;;;1.70;;
62863;SDS011;48954;59.950;11.014;2022-09-01T00:57:54;4.30;;;1.40;;
62863;SDS011;48954;59.950;11.014;2022-09-01T01:00:22;3.00;;;1.60;;
62863;SDS011;48954;59.950;11.014;2022-09-01T01:02:52;3.00;;;1.40;;
62863;SDS011;48954;59.950;11.014;2022-09-01T01:05:19;3.70;;;1.60;;
62863;SDS011;48954;59.950;11.014;2022-09-01T01:07:45;3.50;;;1.50;;
62863;SDS011;48954;59.950;11.014;2022-09-01T01:10:12;3.10;;;1.70;;
62863;SDS011;48954;59.950;11.014;2022-09-01T01:12:40;3.10;;;1.40;;
62863;SDS011;48954;59.950;11.014;2022-09-01T01:15:09;3.40;;;1.80;;
62863;SDS011;48954;59.950;11.014;2022-09-01T01:17:37;4.80;;;1.50;;
62863;SDS011;48954;59.950;11.014;2022-09-01T01:20:04;4.00;;;1.30;;
62863;SDS011;48954;59.950;11.014;2022-09-01T01:25:19;4.70;;;1.50;;
62863;SDS011;48954;59.950;11.014;2022-09-01T01:27:45;2.30;;;1.20;;
62863;SDS011;48954;59.950;11.014;2022-09-01T01:30:12;3.30;;;1.40;;
62863;SDS011;48954;59.950;11.014;2022-09-01T01:32:40;3.70;;;2.00;;
62863;SDS011;48954;59.950;11.014;2022-09-01T01:35:08;2.90;;;1.50;;
62863;SDS011;48954;59.950;11.014;2022-09-01T01:37:35;3.50;;;1.60;;
62863;SDS011;48954;59.950;11.014;2022-09-01T01:40:02;3.90;;;1.60;;
62863;SDS011;48954;59.950;11.014;2022-09-01T01:42:31;3.40;;;1.50;;
62863;SDS011;48954;59.950;11.014;2022-09-01T01:44:58;3.30;;;1.80;;
62863;SDS011;48954;59.950;11.014;2022-09-01T01:47:24;3.70;;;1.70;;
62863;SDS011;48954;59.950;11.014;2022-09-01T01:49:51;2.50;;;1.30;;
62863;SDS011;48954;59.950;11.014;2022-09-01T01:52:17;2.90;;;1.50;;
62863;SDS011;48954;59.950;11.014;2022-09-01T01:54:44;2.80;;;1.60;;
62863;SDS011;48954;59.950;11.014;2022-09-01T01:57:12;3.80;;;1.60;;
62863;SDS011;48954;59.950;11.014;2022-09-01T01:59:38;2.10;;;1.20;;
62863;SDS011;48954;59.950;11.014;2022-09-01T02:02:05;3.60;;;1.40;;
62863;SDS011;48954;59.950;11.014;2022-09-01T02:04:37;4.30;;;1.30;;
62863;SDS011;48954;59.950;11.014;2022-09-01T02:07:03;2.50;;;1.30;;
62863;SDS011;48954;59.950;11.014;2022-09-01T02:09:30;3.20;;;1.50;;
62863;SDS011;48954;59.950;11.014;2022-09-01T02:11:56;3.40;;;1.60;;
62863;SDS011;48954;59.950;11.014;2022-09-01T02:14:23;3.70;;;2.10;;
62863;SDS011;48954;59.950;11.014;2022-09-01T02:16:49;3.00;;;1.50;;
62863;SDS011;48954;59.950;11.014;2022-09-01T02:19:16;4.20;;;1.70;;
62863;SDS011;48954;59.950;11.014;2022-09-01T02:21:43;3.00;;;1.70;;
62863;SDS011;48954;59.950;11.014;2022-09-01T02:24:14;5.50;;;2.20;;
62863;SDS011;48954;59.950;11.014;2022-09-01T02:26:41;3.70;;;1.70;;
62863;SDS011;48954;59.950;11.014;2022-09-01T02:29:10;4.10;;;1.70;;
62863;SDS011;48954;59.950;11.014;2022-09-01T02:31:39;3.00;;;1.70;;
62863;SDS011;48954;59.950;11.014;2022-09-01T02:34:06;5.40;;;1.70;;
62863;SDS011;48954;59.950;11.014;2022-09-01T02:36:33;4.40;;;2.60;;
62863;SDS011;48954;59.950;11.014;2022-09-01T02:39:00;4.30;;;1.70;;
62863;SDS011;48954;59.950;11.014;2022-09-01T02:41:26;8.10;;;3.40;;
62863;SDS011;48954;59.950;11.014;2022-09-01T02:43:52;5.80;;;1.50;;
62863;SDS011;48954;59.950;11.014;2022-09-01T02:46:19;3.40;;;1.60;;
62863;SDS011;48954;59.950;11.014;2022-09-01T02:48:45;2.70;;;1.50;;
62863;SDS011;48954;59.950;11.014;2022-09-01T02:51:17;3.60;;;1.50;;
62863;SDS011;48954;59.950;11.014;2022-09-01T02:53:46;2.80;;;1.40;;
62863;SDS011;48954;59.950;11.014;2022-09-01T02:56:13;2.90;;;1.40;;
62863;SDS011;48954;59.950;11.014;2022-09-01T02:58:40;3.40;;;1.90;;
62863;SDS011;48954;59.950;11.014;2022-09-01T03:01:10;3.10;;;1.70;;
62863;SDS011;48954;59.950;11.014;2022-09-01T03:03:40;5.10;;;2.00;;
62863;SDS011;48954;59.950;11.014;2022-09-01T03:06:06;3.60;;;1.70;;
62863;SDS011;48954;59.950;11.014;2022-09-01T03:08:33;3.20;;;1.80;;
62863;SDS011;48954;59.950;11.014;2022-09-01T03:10:59;4.80;;;2.00;;
62863;SDS011;48954;59.950;11.014;2022-09-01T03:13:26;3.10;;;1.60;;
62863;SDS011;48954;59.950;11.014;2022-09-01T03:15:52;3.80;;;1.30;;
62863;SDS011;48954;59.950;11.014;2022-09-01T03:18:19;3.00;;;1.70;;
62863;SDS011;48954;59.950;11.014;2022-09-01T03:20:45;5.00;;;2.10;;
62863;SDS011;48954;59.950;11.014;2022-09-01T03:23:13;4.40;;;1.50;;
62863;SDS011;48954;59.950;11.014;2022-09-01T03:25:42;3.50;;;1.60;;
62863;SDS011;48954;59.950;11.014;2022-09-01T03:28:10;5.00;;;1.90;;
62863;SDS011;48954;59.950;11.014;2022-09-01T03:30:40;6.00;;;1.90;;
62863;SDS011;48954;59.950;11.014;2022-09-01T03:33:13;2.90;;;1.70;;
62863;SDS011;48954;59.950;11.014;2022-09-01T03:35:45;3.20;;;1.60;;
62863;SDS011;48954;59.950;11.014;2022-09-01T03:38:13;3.30;;;1.90;;
62863;SDS011;48954;59.950;11.014;2022-09-01T03:40:40;2.90;;;1.40;;
62863;SDS011;48954;59.950;11.014;2022-09-01T03:43:08;4.00;;;1.60;;
62863;SDS011;48954;59.950;11.014;2022-09-01T03:45:35;5.00;;;2.40;;
62863;SDS011;48954;59.950;11.014;2022-09-01T03:48:01;5.00;;;2.20;;
62863;SDS011;48954;59.950;11.014;2022-09-01T03:50:29;6.40;;;2.50;;
62863;SDS011;48954;59.950;11.014;2022-09-01T03:52:56;5.50;;;2.30;;
62863;SDS011;48954;59.950;11.014;2022-09-01T03:55:26;4.90;;;2.20;;
62863;SDS011;48954;59.950;11.014;2022-09-01T03:57:55;5.20;;;1.80;;
62863;SDS011;48954;59.950;11.014;2022-09-01T04:00:25;5.10;;;2.40;;
62863;SDS011;48954;59.950;11.014;2022-09-01T04:02:53;4.70;;;2.20;;
62863;SDS011;48954;59.950;11.014;2022-09-01T04:05:19;6.70;;;2.50;;
62863;SDS011;48954;59.950;11.014;2022-09-01T04:07:47;4.90;;;2.40;;
62863;SDS011;48954;59.950;11.014;2022-09-01T04:10:14;6.40;;;3.00;;
62863;SDS011;48954;59.950;11.014;2022-09-01T04:12:41;5.90;;;3.10;;
62863;SDS011;48954;59.950;11.014;2022-09-01T04:15:08;5.80;;;3.10;;
62863;SDS011;48954;59.950;11.014;2022-09-01T04:17:35;4.00;;;2.30;;
62863;SDS011;48954;59.950;11.014;2022-09-01T04:20:02;6.80;;;2.30;;
62863;SDS011;48954;59.950;11.014;2022-09-01T04:22:29;3.60;;;2.20;;
62863;SDS011;48954;59.950;11.014;2022-09-01T04:24:55;5.10;;;2.10;;
62863;SDS011;48954;59.950;11.014;2022-09-01T04:27:21;5.10;;;2.40;;
62863;SDS011;48954;59.950;11.014;2022-09-01T04:29:48;6.50;;;2.40;;
62863;SDS011;48954;59.950;11.014;2022-09-01T04:32:14;4.50;;;2.40;;
62863;SDS011;48954;59.950;11.014;2022-09-01T04:34:41;4.60;;;2.30;;
62863;SDS011;48954;59.950;11.014;2022-09-01T04:37:12;7.10;;;2.80;;
62863;SDS011;48954;59.950;11.014;2022-09-01T04:39:42;6.00;;;2.50;;
62863;SDS011;48954;59.950;11.014;2022-09-01T04:42:20;5.20;;;2.10;;
62863;SDS011;48954;59.950;11.014;2022-09-01T04:44:49;5.40;;;2.80;;
62863;SDS011;48954;59.950;11.014;2022-09-01T04:47:17;4.50;;;2.50;;
62863;SDS011;48954;59.950;11.014;2022-09-01T04:49:45;3.90;;;2.30;;
62863;SDS011;48954;59.950;11.014;2022-09-01T04:52:12;6.20;;;2.90;;
62863;SDS011;48954;59.950;11.014;2022-09-01T04:54:44;5.20;;;2.50;;
62863;SDS011;48954;59.950;11.014;2022-09-01T04:57:11;5.80;;;3.10;;
62863;SDS011;48954;59.950;11.014;2022-09-01T04:59:38;4.90;;;2.70;;
62863;SDS011;48954;59.950;11.014;2022-09-01T05:02:04;7.60;;;4.00;;
62863;SDS011;48954;59.950;11.014;2022-09-01T05:04:32;5.70;;;2.80;;
62863;SDS011;48954;59.950;11.014;2022-09-01T05:06:58;5.50;;;3.30;;
62863;SDS011;48954;59.950;11.014;2022-09-01T05:09:26;7.10;;;3.20;;
62863;SDS011;48954;59.950;11.014;2022-09-01T05:11:55;7.90;;;3.10;;
62863;SDS011;48954;59.950;11.014;2022-09-01T05:14:23;6.10;;;2.70;;
62863;SDS011;48954;59.950;11.014;2022-09-01T05:16:55;8.10;;;3.30;;
62863;SDS011;48954;59.950;11.014;2022-09-01T05:19:23;10.10;;;3.90;;
62863;SDS011;48954;59.950;11.014;2022-09-01T05:21:50;10.50;;;4.30;;
62863;SDS011;48954;59.950;11.014;2022-09-01T05:24:18;9.50;;;3.90;;
62863;SDS011;48954;59.950;11.014;2022-09-01T05:26:45;7.70;;;3.40;;
62863;SDS011;48954;59.950;11.014;2022-09-01T05:29:13;7.90;;;3.60;;
62863;SDS011;48954;59.950;11.014;2022-09-01T05:31:40;8.00;;;3.20;;
62863;SDS011;48954;59.950;11.014;2022-09-01T05:34:08;6.40;;;3.30;;
62863;SDS011;48954;59.950;11.014;2022-09-01T05:36:36;6.60;;;3.20;;
62863;SDS011;48954;59.950;11.014;2022-09-01T05:39:07;6.00;;;2.70;;
62863;SDS011;48954;59.950;11.014;2022-09-01T05:41:34;5.20;;;2.90;;
62863;SDS011;48954;59.950;11.014;2022-09-01T05:44:01;7.00;;;3.00;;
62863;SDS011;48954;59.950;11.014;2022-09-01T05:46:29;7.70;;;3.00;;
62863;SDS011;48954;59.950;11.014;2022-09-01T05:48:58;8.80;;;3.40;;
62863;SDS011;48954;59.950;11.014;2022-09-01T05:51:25;6.10;;;3.00;;
62863;SDS011;48954;59.950;11.014;2022-09-01T05:53:55;4.20;;;2.50;;
62863;SDS011;48954;59.950;11.014;2022-09-01T05:56:22;6.00;;;2.60;;
62863;SDS011;48954;59.950;11.014;2022-09-01T05:58:49;5.80;;;2.40;;
62863;SDS011;48954;59.950;11.014;2022-09-01T06:01:19;6.20;;;2.80;;
62863;SDS011;48954;59.950;11.014;2022-09-01T06:03:48;5.40;;;2.20;;
62863;SDS011;48954;59.950;11.014;2022-09-01T06:06:23;2.90;;;1.50;;
62863;SDS011;48954;59.950;11.014;2022-09-01T06:08:52;5.10;;;2.10;;
62863;SDS011;48954;59.950;11.014;2022-09-01T06:11:20;3.90;;;1.70;;
62863;SDS011;48954;59.950;11.014;2022-09-01T06:14:07;2.90;;;1.60;;
62863;SDS011;48954;59.950;11.014;2022-09-01T06:16:34;3.10;;;1.60;;
62863;SDS011;48954;59.950;11.014;2022-09-01T06:19:03;4.90;;;2.00;;
62863;SDS011;48954;59.950;11.014;2022-09-01T06:21:31;3.40;;;1.70;;
62863;SDS011;48954;59.950;11.014;2022-09-01T06:24:03;3.50;;;1.80;;
62863;SDS011;48954;59.950;11.014;2022-09-01T06:26:33;3.50;;;1.80;;
62863;SDS011;48954;59.950;11.014;2022-09-01T06:29:08;3.30;;;1.80;;
62863;SDS011;48954;59.950;11.014;2022-09-01T06:31:36;5.00;;;1.70;;
62863;SDS011;48954;59.950;11.014;2022-09-01T06:34:05;3.70;;;1.80;;
62863;SDS011;48954;59.950;11.014;2022-09-01T06:36:36;6.20;;;1.80;;
62863;SDS011;48954;59.950;11.014;2022-09-01T06:39:04;6.70;;;2.20;;
62863;SDS011;48954;59.950;11.014;2022-09-01T06:41:34;5.10;;;2.20;;
62863;SDS011;48954;59.950;11.014;2022-09-01T06:44:01;3.90;;;1.90;;
62863;SDS011;48954;59.950;11.014;2022-09-01T06:46:28;7.70;;;2.10;;
62863;SDS011;48954;59.950;11.014;2022-09-01T06:48:54;7.50;;;2.40;;
62863;SDS011;48954;59.950;11.014;2022-09-01T06:51:21;5.60;;;2.30;;
62863;SDS011;48954;59.950;11.014;2022-09-01T06:53:50;3.30;;;1.80;;
62863;SDS011;48954;59.950;11.014;2022-09-01T06:56:17;5.90;;;2.20;;
62863;SDS011;48954;59.950;11.014;2022-09-01T06:58:50;3.70;;;1.80;;
62863;SDS011;48954;59.950;11.014;2022-09-01T07:01:19;3.70;;;1.90;;
62863;SDS011;48954;59.950;11.014;2022-09-01T07:03:49;5.90;;;2.20;;
62863;SDS011;48954;59.950;11.014;2022-09-01T07:06:18;3.40;;;1.90;;
62863;SDS011;48954;59.950;11.014;2022-09-01T07:08:46;6.50;;;2.40;;
62863;SDS011;48954;59.950;11.014;2022-09-01T07:11:17;6.80;;;2.20;;
62863;SDS011;48954;59.950;11.014;2022-09-01T07:13:46;5.30;;;2.30;;
62863;SDS011;48954;59.950;11.014;2022-09-01T07:16:16;3.90;;;1.90;;
62863;SDS011;48954;59.950;11.014;2022-09-01T07:18:43;5.20;;;2.00;;
62863;SDS011;48954;59.950;11.014;2022-09-01T07:21:10;4.60;;;2.20;;
62863;SDS011;48954;59.950;11.014;2022-09-01T07:23:38;5.50;;;2.70;;
62863;SDS011;48954;59.950;11.014;2022-09-01T07:26:05;4.50;;;2.50;;
62863;SDS011;48954;59.950;11.014;2022-09-01T07:28:34;5.70;;;2.30;;
62863;SDS011;48954;59.950;11.014;2022-09-01T07:31:01;9.20;;;2.60;;
62863;SDS011;48954;59.950;11.014;2022-09-01T07:33:28;8.90;;;2.80;;
62863;SDS011;48954;59.950;11.014;2022-09-01T07:35:56;7.70;;;2.80;;
62863;SDS011;48954;59.950;11.014;2022-09-01T07:38:24;7.50;;;2.50;;
62863;SDS011;48954;59.950;11.014;2022-09-01T07:40:51;4.10;;;2.40;;
62863;SDS011;48954;59.950;11.014;2022-09-01T07:43:19;3.80;;;2.30;;
62863;SDS011;48954;59.950;11.014;2022-09-01T07:45:50;4.20;;;2.00;;
62863;SDS011;48954;59.950;11.014;2022-09-01T07:48:19;3.10;;;1.90;;
62863;SDS011;48954;59.950;11.014;2022-09-01T07:50:47;6.10;;;2.30;;
62863;SDS011;48954;59.950;11.014;2022-09-01T07:53:19;6.50;;;2.30;;
62863;SDS011;48954;59.950;11.014;2022-09-01T07:55:49;5.70;;;2.70;;
62863;SDS011;48954;59.950;11.014;2022-09-01T07:58:18;4.20;;;2.30;;
62863;SDS011;48954;59.950;11.014;2022-09-01T08:00:46;7.50;;;2.50;;
62863;SDS011;48954;59.950;11.014;2022-09-01T08:03:13;4.10;;;1.80;;
62863;SDS011;48954;59.950;11.014;2022-09-01T08:05:40;4.70;;;2.00;;
62863;SDS011;48954;59.950;11.014;2022-09-01T08:08:07;5.20;;;2.00;;
62863;SDS011;48954;59.950;11.014;2022-09-01T08:10:33;3.80;;;1.80;;
62863;SDS011;48954;59.950;11.014;2022-09-01T08:13:05;4.20;;;1.90;;
62863;SDS011;48954;59.950;11.014;2022-09-01T08:15:32;4.30;;;1.70;;
62863;SDS011;48954;59.950;11.014;2022-09-01T08:18:01;3.60;;;1.40;;
62863;SDS011;48954;59.950;11.014;2022-09-01T08:20:27;2.70;;;1.50;;
62863;SDS011;48954;59.950;11.014;2022-09-01T08:22:56;4.30;;;1.90;;
62863;SDS011;48954;59.950;11.014;2022-09-01T08:25:23;3.70;;;1.90;;
62863;SDS011;48954;59.950;11.014;2022-09-01T08:27:50;3.80;;;1.60;;
62863;SDS011;48954;59.950;11.014;2022-09-01T08:30:18;4.00;;;1.80;;
62863;SDS011;48954;59.950;11.014;2022-09-01T08:32:47;3.00;;;1.70;;
62863;SDS011;48954;59.950;11.014;2022-09-01T08:35:13;3.20;;;1.70;;
62863;SDS011;48954;59.950;11.014;2022-09-01T08:37:42;4.80;;;1.80;;
62863;SDS011;48954;59.950;11.014;2022-09-01T08:40:11;4.00;;;1.90;;
62863;SDS011;48954;59.950;11.014;2022-09-01T08:45:50;5.00;;;2.00;;
62863;SDS011;48954;59.950;11.014;2022-09-01T08:48:20;13.00;;;1.90;;
62863;SDS011;48954;59.950;11.014;2022-09-01T08:50:52;4.70;;;1.80;;
62863;SDS011;48954;59.950;11.014;2022-09-01T08:53:32;4.60;;;1.50;;
62863;SDS011;48954;59.950;11.014;2022-09-01T08:56:03;4.90;;;1.80;;
62863;SDS011;48954;59.950;11.014;2022-09-01T08:58:31;6.20;;;1.80;;
62863;SDS011;48954;59.950;11.014;2022-09-01T09:01:00;5.40;;;1.70;;
62863;SDS011;48954;59.950;11.014;2022-09-01T09:10:05;3.30;;;1.40;;
62863;SDS011;48954;59.950;11.014;2022-09-01T09:21:07;5.80;;;1.50;;
62863;SDS011;48954;59.950;11.014;2022-09-01T09:23:44;2.50;;;1.10;;
62863;SDS011;48954;59.950;11.014;2022-09-01T09:26:13;1.90;;;1.20;;
62863;SDS011;48954;59.950;11.014;2022-09-01T09:28:42;2.60;;;1.20;;
62863;SDS011;48954;59.950;11.014;2022-09-01T09:31:32;2.40;;;1.20;;
62863;SDS011;48954;59.950;11.014;2022-09-01T09:34:16;4.10;;;1.40;;
62863;SDS011;48954;59.950;11.014;2022-09-01T09:36:49;2.10;;;1.10;;
62863;SDS011;48954;59.950;11.014;2022-09-01T09:39:16;2.00;;;1.20;;
62863;SDS011;48954;59.950;11.014;2022-09-01T09:44:52;4.50;;;1.30;;
62863;SDS011;48954;59.950;11.014;2022-09-01T09:47:39;4.10;;;1.40;;
62863;SDS011;48954;59.950;11.014;2022-09-01T09:50:20;2.60;;;1.20;;
62863;SDS011;48954;59.950;11.014;2022-09-01T09:52:48;3.70;;;1.40;;
62863;SDS011;48954;59.950;11.014;2022-09-01T09:55:24;2.50;;;1.30;;
62863;SDS011;48954;59.950;11.014;2022-09-01T09:57:56;2.20;;;1.30;;
62863;SDS011;48954;59.950;11.014;2022-09-01T10:00:30;3.70;;;1.50;;
62863;SDS011;48954;59.950;11.014;2022-09-01T10:03:03;3.40;;;1.30;;
62863;SDS011;48954;59.950;11.014;2022-09-01T10:05:39;4.30;;;1.40;;
62863;SDS011;48954;59.950;11.014;2022-09-01T10:08:11;3.40;;;1.40;;
62863;SDS011;48954;59.950;11.014;2022-09-01T10:10:59;2.40;;;1.40;;
62863;SDS011;48954;59.950;11.014;2022-09-01T10:13:27;3.50;;;1.30;;
62863;SDS011;48954;59.950;11.014;2022-09-01T10:15:55;2.00;;;1.30;;
62863;SDS011;48954;59.950;11.014;2022-09-01T10:18:26;3.00;;;1.70;;
62863;SDS011;48954;59.950;11.014;2022-09-01T10:21:32;3.40;;;1.50;;
62863;SDS011;48954;59.950;11.014;2022-09-01T10:23:54;4.30;;;1.70;;
62863;SDS011;48954;59.950;11.014;2022-09-01T10:26:36;3.00;;;1.70;;
62863;SDS011;48954;59.950;11.014;2022-09-01T10:31:33;3.40;;;1.80;;
62863;SDS011;48954;59.950;11.014;2022-09-01T10:34:19;4.00;;;1.70;;
62863;SDS011;48954;59.950;11.014;2022-09-01T10:36:50;3.50;;;1.80;;
62863;SDS011;48954;59.950;11.014;2022-09-01T10:39:17;5.90;;;1.50;;
62863;SDS011;48954;59.950;11.014;2022-09-01T10:44:30;6.20;;;2.10;;
62863;SDS011;48954;59.950;11.014;2022-09-01T10:47:09;4.00;;;2.00;;
62863;SDS011;48954;59.950;11.014;2022-09-01T10:53:02;4.70;;;2.00;;
62863;SDS011;48954;59.950;11.014;2022-09-01T11:08:22;4.50;;;1.90;;
62863;SDS011;48954;59.950;11.014;2022-09-01T11:14:00;3.40;;;1.90;;
62863;SDS011;48954;59.950;11.014;2022-09-01T11:19:26;3.60;;;1.90;;
62863;SDS011;48954;59.950;11.014;2022-09-01T11:36:00;3.30;;;2.00;;
62863;SDS011;48954;59.950;11.014;2022-09-01T11:38:37;4.30;;;1.90;;
62863;SDS011;48954;59.950;11.014;2022-09-01T11:41:22;3.90;;;2.00;;
62863;SDS011;48954;59.950;11.014;2022-09-01T11:43:51;4.30;;;2.10;;
62863;SDS011;48954;59.950;11.014;2022-09-01T11:46:23;3.00;;;1.80;;
62863;SDS011;48954;59.950;11.014;2022-09-01T11:48:52;3.40;;;1.90;;
62863;SDS011;48954;59.950;11.014;2022-09-01T11:51:46;3.20;;;1.90;;
62863;SDS011;48954;59.950;11.014;2022-09-01T11:54:28;3.40;;;1.60;;
62863;SDS011;48954;59.950;11.014;2022-09-01T11:57:15;4.00;;;2.00;;
62863;SDS011;48954;59.950;11.014;2022-09-01T11:59:48;3.70;;;1.70;;
62863;SDS011;48954;59.950;11.014;2022-09-01T12:02:30;3.60;;;1.70;;
62863;SDS011;48954;59.950;11.014;2022-09-01T12:05:03;3.40;;;1.60;;
62863;SDS011;48954;59.950;11.014;2022-09-01T12:07:54;6.00;;;1.80;;
62863;SDS011;48954;59.950;11.014;2022-09-01T12:10:34;3.50;;;2.00;;
62863;SDS011;48954;59.950;11.014;2022-09-01T12:13:05;3.30;;;2.00;;
62863;SDS011;48954;59.950;11.014;2022-09-01T12:15:53;3.30;;;2.00;;
62863;SDS011;48954;59.950;11.014;2022-09-01T12:18:26;4.20;;;1.80;;
62863;SDS011;48954;59.950;11.014;2022-09-01T12:20:58;5.10;;;1.80;;
62863;SDS011;48954;59.950;11.014;2022-09-01T12:23:36;3.90;;;1.90;;
62863;SDS011;48954;59.950;11.014;2022-09-01T12:26:08;2.90;;;1.80;;
62863;SDS011;48954;59.950;11.014;2022-09-01T12:28:37;3.50;;;2.00;;
62863;SDS011;48954;59.950;11.014;2022-09-01T12:31:07;4.70;;;1.80;;
62863;SDS011;48954;59.950;11.014;2022-09-01T12:33:41;3.20;;;2.00;;
62863;SDS011;48954;59.950;11.014;2022-09-01T12:36:23;6.70;;;2.00;;
62863;SDS011;48954;59.950;11.014;2022-09-01T12:38:53;5.00;;;2.30;;
62863;SDS011;48954;59.950;11.014;2022-09-01T12:41:33;6.40;;;2.20;;
62863;SDS011;48954;59.950;11.014;2022-09-01T12:46:52;4.50;;;2.40;;
62863;SDS011;48954;59.950;11.014;2022-09-01T12:49:22;4.00;;;2.00;;
62863;SDS011;48954;59.950;11.014;2022-09-01T12:54:41;2.90;;;1.80;;
62863;SDS011;48954;59.950;11.014;2022-09-01T12:57:07;3.60;;;1.60;;
62863;SDS011;48954;59.950;11.014;2022-09-01T12:59:35;4.00;;;1.80;;
62863;SDS011;48954;59.950;11.014;2022-09-01T13:04:53;2.40;;;1.60;;
62863;SDS011;48954;59.950;11.014;2022-09-01T13:07:20;5.00;;;1.90;;
62863;SDS011;48954;59.950;11.014;2022-09-01T13:09:46;3.70;;;1.70;;
62863;SDS011;48954;59.950;11.014;2022-09-01T13:12:17;3.10;;;1.80;;
62863;SDS011;48954;59.950;11.014;2022-09-01T13:14:46;5.00;;;2.10;;
62863;SDS011;48954;59.950;11.014;2022-09-01T13:17:12;3.90;;;1.90;;
62863;SDS011;48954;59.950;11.014;2022-09-01T13:19:39;3.40;;;1.70;;
62863;SDS011;48954;59.950;11.014;2022-09-01T13:22:09;2.50;;;1.50;;
62863;SDS011;48954;59.950;11.014;2022-09-01T13:24:36;3.00;;;2.00;;
62863;SDS011;48954;59.950;11.014;2022-09-01T13:27:02;3.30;;;1.80;;
62863;SDS011;48954;59.950;11.014;2022-09-01T13:29:29;5.60;;;2.00;;
62863;SDS011;48954;59.950;11.014;2022-09-01T13:31:55;3.10;;;1.90;;
62863;SDS011;48954;59.950;11.014;2022-09-01T13:34:22;3.10;;;1.80;;
62863;SDS011;48954;59.950;11.014;2022-09-01T13:36:48;3.60;;;1.90;;
62863;SDS011;48954;59.950;11.014;2022-09-01T13:39:15;4.30;;;1.90;;
62863;SDS011;48954;59.950;11.014;2022-09-01T13:41:41;3.00;;;1.70;;
62863;SDS011;48954;59.950;11.014;2022-09-01T13:44:09;5.10;;;1.80;;
62863;SDS011;48954;59.950;11.014;2022-09-01T13:46:36;3.30;;;1.80;;
62863;SDS011;48954;59.950;11.014;2022-09-01T13:49:02;2.80;;;1.80;;
62863;SDS011;48954;59.950;11.014;2022-09-01T13:51:29;2.90;;;1.80;;
62863;SDS011;48954;59.950;11.014;2022-09-01T13:53:56;3.90;;;1.60;;
62863;SDS011;48954;59.950;11.014;2022-09-01T13:56:23;3.60;;;2.00;;
62863;SDS011;48954;59.950;11.014;2022-09-01T13:58:49;6.60;;;1.70;;
62863;SDS011;48954;59.950;11.014;2022-09-01T14:01:17;3.80;;;1.50;;
62863;SDS011;48954;59.950;11.014;2022-09-01T14:03:43;3.30;;;1.80;;
62863;SDS011;48954;59.950;11.014;2022-09-01T14:06:10;6.50;;;2.10;;
62863;SDS011;48954;59.950;11.014;2022-09-01T14:08:38;4.40;;;1.90;;
62863;SDS011;48954;59.950;11.014;2022-09-01T14:11:05;2.50;;;1.60;;
62863;SDS011;48954;59.950;11.014;2022-09-01T14:13:34;2.50;;;1.60;;
62863;SDS011;48954;59.950;11.014;2022-09-01T14:16:01;3.30;;;1.70;;
62863;SDS011;48954;59.950;11.014;2022-09-01T14:18:28;3.10;;;1.70;;
62863;SDS011;48954;59.950;11.014;2022-09-01T14:20:54;3.60;;;1.90;;
62863;SDS011;48954;59.950;11.014;2022-09-01T14:23:21;4.00;;;2.10;;
62863;SDS011;48954;59.950;11.014;2022-09-01T14:25:49;3.30;;;1.60;;
62863;SDS011;48954;59.950;11.014;2022-09-01T14:28:17;2.20;;;1.40;;
62863;SDS011;48954;59.950;11.014;2022-09-01T14:30:46;2.90;;;1.80;;
62863;SDS011;48954;59.950;11.014;2022-09-01T14:33:14;4.30;;;2.30;;
62863;SDS011;48954;59.950;11.014;2022-09-01T14:35:42;2.70;;;1.50;;
62863;SDS011;48954;59.950;11.014;2022-09-01T14:38:11;2.50;;;1.60;;
62863;SDS011;48954;59.950;11.014;2022-09-01T14:40:39;3.50;;;1.60;;
62863;SDS011;48954;59.950;11.014;2022-09-01T14:43:07;2.30;;;1.40;;
62863;SDS011;48954;59.950;11.014;2022-09-01T14:45:35;2.70;;;1.60;;
62863;SDS011;48954;59.950;11.014;2022-09-01T14:48:02;3.00;;;1.60;;
62863;SDS011;48954;59.950;11.014;2022-09-01T14:50:30;3.20;;;1.60;;
62863;SDS011;48954;59.950;11.014;2022-09-01T14:53:04;3.80;;;1.50;;
62863;SDS011;48954;59.950;11.014;2022-09-01T14:55:31;4.00;;;1.70;;
62863;SDS011;48954;59.950;11.014;2022-09-01T14:57:58;2.90;;;1.40;;
62863;SDS011;48954;59.950;11.014;2022-09-01T15:00:25;3.70;;;1.70;;
62863;SDS011;48954;59.950;11.014;2022-09-01T15:02:53;2.80;;;1.50;;
62863;SDS011;48954;59.950;11.014;2022-09-01T15:05:28;2.60;;;1.60;;
62863;SDS011;48954;59.950;11.014;2022-09-01T15:07:55;3.80;;;1.50;;
62863;SDS011;48954;59.950;11.014;2022-09-01T15:10:22;3.10;;;1.50;;
62863;SDS011;48954;59.950;11.014;2022-09-01T15:12:50;3.90;;;1.50;;
62863;SDS011;48954;59.950;11.014;2022-09-01T15:15:17;2.80;;;1.60;;
62863;SDS011;48954;59.950;11.014;2022-09-01T15:17:43;3.90;;;1.90;;
62863;SDS011;48954;59.950;11.014;2022-09-01T15:20:10;3.60;;;1.60;;
62863;SDS011;48954;59.950;11.014;2022-09-01T15:22:38;2.10;;;1.50;;
62863;SDS011;48954;59.950;11.014;2022-09-01T15:25:05;3.20;;;2.00;;
62863;SDS011;48954;59.950;11.014;2022-09-01T15:27:32;2.90;;;1.70;;
62863;SDS011;48954;59.950;11.014;2022-09-01T15:29:58;4.20;;;1.70;;
62863;SDS011;48954;59.950;11.014;2022-09-01T15:32:24;3.70;;;1.60;;
62863;SDS011;48954;59.950;11.014;2022-09-01T15:34:51;3.60;;;1.70;;
62863;SDS011;48954;59.950;11.014;2022-09-01T15:37:18;3.50;;;1.80;;
62863;SDS011;48954;59.950;11.014;2022-09-01T15:39:44;3.00;;;1.40;;
62863;SDS011;48954;59.950;11.014;2022-09-01T15:42:11;2.50;;;1.70;;
62863;SDS011;48954;59.950;11.014;2022-09-01T15:44:38;2.60;;;1.50;;
62863;SDS011;48954;59.950;11.014;2022-09-01T15:47:04;3.00;;;1.50;;
62863;SDS011;48954;59.950;11.014;2022-09-01T15:49:31;2.80;;;1.50;;
62863;SDS011;48954;59.950;11.014;2022-09-01T15:51:58;2.60;;;1.60;;
62863;SDS011;48954;59.950;11.014;2022-09-01T15:54:24;3.50;;;1.80;;
62863;SDS011;48954;59.950;11.014;2022-09-01T15:56:51;3.80;;;1.60;;
62863;SDS011;48954;59.950;11.014;2022-09-01T15:59:17;3.60;;;1.80;;
62863;SDS011;48954;59.950;11.014;2022-09-01T16:01:44;2.80;;;1.90;;